createdAt,value
2018-02-12T00:02:07.659Z,94926
2018-02-12T00:04:36.697Z,94916
2018-02-12T00:07:06.467Z,94926
2018-02-12T00:09:35.502Z,94914
2018-02-12T00:12:05.273Z,94918
2018-02-12T00:14:34.310Z,94908
2018-02-12T00:17:03.501Z,94921
2018-02-12T00:19:33.274Z,94924
2018-02-12T00:22:02.277Z,94926
2018-02-12T00:24:31.313Z,94926
2018-02-12T00:27:00.316Z,94923
2018-02-12T00:29:29.356Z,94921
2018-02-12T00:31:58.357Z,94925
2018-02-12T00:34:27.387Z,94929
2018-02-12T00:36:56.388Z,94926
2018-02-12T00:39:25.582Z,94935
2018-02-12T00:41:54.586Z,94931
2018-02-12T00:44:23.673Z,94939
2018-02-12T00:46:52.675Z,94933
2018-02-12T00:49:21.677Z,94936
2018-02-12T00:51:50.711Z,94927
2018-02-12T00:54:19.743Z,94931
2018-02-12T00:56:48.751Z,94928
2018-02-12T00:59:17.801Z,94925
2018-02-12T01:01:47.560Z,94932
2018-02-12T01:04:16.588Z,94928
2018-02-12T01:06:45.593Z,94930
2018-02-12T01:09:15.409Z,94928
2018-02-12T01:11:45.173Z,94929
2018-02-12T01:14:14.186Z,94924
2018-02-12T01:16:43.212Z,94923
2018-02-12T01:19:12.994Z,94927
2018-02-12T01:21:42.033Z,94927
2018-02-12T01:24:11.039Z,94926
2018-02-12T01:26:40.078Z,94945
2018-02-12T01:29:09.077Z,94949
2018-02-12T01:31:38.113Z,94956
2018-02-12T01:34:07.113Z,94951
2018-02-12T01:36:36.140Z,94958
2018-02-12T01:39:05.155Z,94961
2018-02-12T01:41:34.211Z,94962
2018-02-12T01:44:03.225Z,94952
2018-02-12T01:46:32.220Z,94949
2018-02-12T01:49:01.241Z,94946
2018-02-12T01:51:31.010Z,94951
2018-02-12T01:54:00.047Z,94958
2018-02-12T01:56:29.855Z,94958
2018-02-12T01:58:59.625Z,94969
2018-02-12T02:01:28.665Z,94955
2018-02-12T02:03:58.441Z,94962
2018-02-12T02:06:27.473Z,94954
2018-02-12T02:08:57.251Z,94962
2018-02-12T02:11:27.499Z,94953
2018-02-12T02:13:57.714Z,94955
2018-02-12T02:16:27.478Z,94963
2018-02-12T02:18:56.522Z,94961
2018-02-12T02:21:26.326Z,94958
2018-02-12T02:23:55.337Z,94950
2018-02-12T02:26:25.138Z,94946
2018-02-12T02:28:54.906Z,94949
2018-02-12T02:31:23.943Z,94946
2018-02-12T02:33:53.722Z,94942
2018-02-12T02:36:22.763Z,94946
2018-02-12T02:38:51.761Z,94941
2018-02-12T02:41:20.814Z,94947
2018-02-12T02:43:49.823Z,94955
2018-02-12T02:46:18.830Z,94950
2018-02-12T02:48:48.667Z,94956
2018-02-12T02:51:17.668Z,94963
2018-02-12T02:53:46.684Z,94959
2018-02-12T02:56:15.726Z,94964
2018-02-12T02:58:45.494Z,94961
2018-02-12T03:01:14.569Z,94965
2018-02-12T03:03:43.582Z,94969
2018-02-12T03:06:12.590Z,94959
2018-02-12T03:08:41.634Z,94967
2018-02-12T03:11:10.638Z,94960
2018-02-12T03:13:39.682Z,94960
2018-02-12T03:16:09.455Z,94960
2018-02-12T03:18:38.490Z,94958
2018-02-12T03:21:08.267Z,94957
2018-02-12T03:23:37.297Z,94953
2018-02-12T03:26:07.065Z,94965
2018-02-12T03:28:36.105Z,94973
2018-02-12T03:31:05.885Z,94966
2018-02-12T03:33:34.914Z,94966
2018-02-12T03:36:03.930Z,94960
2018-02-12T03:38:32.963Z,94962
2018-02-12T03:41:01.973Z,94973
2018-02-12T03:43:31.030Z,94974
2018-02-12T03:46:01.967Z,94968
2018-02-12T03:48:30.999Z,94976
2018-02-12T03:50:59.997Z,94962
2018-02-12T03:53:29.819Z,94982
2018-02-12T03:55:59.582Z,94984
2018-02-12T03:58:28.619Z,94973
2018-02-12T04:00:58.403Z,94984
2018-02-12T04:03:27.449Z,94986
2018-02-12T04:05:56.462Z,94995
2018-02-12T04:08:25.507Z,94989
2018-02-12T04:10:55.284Z,94990
2018-02-12T04:13:24.334Z,94984
2018-02-12T04:15:53.346Z,94997
2018-02-12T04:18:22.431Z,94991
2018-02-12T04:20:51.425Z,94986
2018-02-12T04:23:20.442Z,94990
2018-02-12T04:25:49.492Z,94991
2018-02-12T04:28:19.266Z,94996
2018-02-12T04:30:48.318Z,95006
2018-02-12T04:33:17.329Z,95003
2018-02-12T04:35:46.368Z,94995
2018-02-12T04:38:15.378Z,95003
2018-02-12T04:40:44.441Z,95005
2018-02-12T04:43:13.458Z,95013
2018-02-12T04:45:43.231Z,95005
2018-02-12T04:48:12.269Z,95005
2018-02-12T04:50:41.282Z,95011
2018-02-12T04:53:10.322Z,95012
2018-02-12T04:55:39.358Z,95017
2018-02-12T04:58:08.365Z,95019
2018-02-12T05:00:37.410Z,95013
2018-02-12T05:03:06.406Z,95010
2018-02-12T05:05:35.459Z,95007
2018-02-12T05:08:04.466Z,95011
2018-02-12T05:10:33.479Z,95010
2018-02-12T05:13:02.537Z,95008
2018-02-12T05:15:31.548Z,95011
2018-02-12T05:18:00.549Z,95006
2018-02-12T05:20:29.594Z,95002
2018-02-12T05:22:58.601Z,95004
2018-02-12T05:25:27.654Z,95003
2018-02-12T05:27:56.671Z,95015
2018-02-12T05:30:25.666Z,95012
2018-02-12T05:32:54.706Z,95009
2018-02-12T05:35:23.711Z,95011
2018-02-12T05:37:52.738Z,95018
2018-02-12T05:40:22.510Z,95013
2018-02-12T05:42:51.555Z,95013
2018-02-12T05:45:20.554Z,95022
2018-02-12T05:47:49.571Z,95019
2018-02-12T05:50:18.609Z,95025
2018-02-12T05:52:48.395Z,94949
2018-02-12T05:55:17.390Z,95034
2018-02-12T05:57:46.437Z,95036
2018-02-12T06:00:15.450Z,95033
2018-02-12T06:02:44.496Z,95039
2018-02-12T06:05:14.253Z,95040
2018-02-12T06:07:43.290Z,95043
2018-02-12T06:10:12.302Z,95044
2018-02-12T06:12:42.099Z,95046
2018-02-12T06:15:11.111Z,95049
2018-02-12T06:17:40.911Z,95053
2018-02-12T06:20:10.691Z,95069
2018-02-12T06:22:39.726Z,95072
2018-02-12T06:25:09.497Z,95077
2018-02-12T06:27:38.523Z,95071
2018-02-12T06:30:08.331Z,95078
2018-02-12T06:32:38.131Z,95078
2018-02-12T06:35:07.171Z,95082
2018-02-12T06:37:36.215Z,95092
2018-02-12T06:40:05.262Z,95094
2018-02-12T06:42:34.299Z,95095
2018-02-12T06:45:03.322Z,95098
2018-02-12T06:47:32.325Z,95109
2018-02-12T06:50:01.357Z,95007
2018-02-12T06:52:30.357Z,95107
2018-02-12T06:54:59.408Z,95103
2018-02-12T06:57:28.411Z,95115
2018-02-12T06:59:57.446Z,95116
2018-02-12T07:02:26.454Z,95123
2018-02-12T07:04:55.481Z,95132
2018-02-12T07:07:24.495Z,95138
2018-02-12T07:09:53.557Z,95124
2018-02-12T07:12:22.580Z,95147
2018-02-12T07:14:51.579Z,95126
2018-02-12T07:17:20.932Z,95148
2018-02-12T07:19:50.698Z,95149
2018-02-12T07:22:19.699Z,95147
2018-02-12T07:24:48.774Z,95155
2018-02-12T07:27:17.774Z,95162
2018-02-12T07:29:46.785Z,95155
2018-02-12T07:32:15.823Z,95162
2018-02-12T07:34:45.590Z,95169
2018-02-12T07:37:14.641Z,95169
2018-02-12T07:39:43.641Z,95171
2018-02-12T07:42:12.645Z,95187
2018-02-12T07:44:41.710Z,95192
2018-02-12T07:47:10.722Z,95190
2018-02-12T07:49:39.730Z,95196
2018-02-12T07:52:08.766Z,95202
2018-02-12T07:54:37.802Z,95211
2018-02-12T07:57:06.806Z,95208
2018-02-12T07:59:35.847Z,95219
2018-02-12T08:02:04.858Z,95222
2018-02-12T08:04:34.662Z,95228
2018-02-12T08:07:04.433Z,95236
2018-02-12T08:09:33.498Z,95241
2018-02-12T08:12:02.552Z,95244
2018-02-12T08:14:32.382Z,95236
2018-02-12T08:17:01.435Z,95250
2018-02-12T08:19:30.434Z,95266
2018-02-12T08:21:59.447Z,95257
2018-02-12T08:24:29.350Z,95254
2018-02-12T08:26:58.369Z,95264
2018-02-12T08:29:28.138Z,95284
2018-02-12T08:31:57.182Z,95261
2018-02-12T08:34:26.219Z,95267
2018-02-12T08:36:55.228Z,95265
2018-02-12T08:39:24.270Z,95275
2018-02-12T08:41:53.278Z,95277
2018-02-12T08:44:22.332Z,95280
2018-02-12T08:46:52.097Z,95287
2018-02-12T08:49:21.102Z,95292
2018-02-12T08:51:50.145Z,95297
2018-02-12T08:54:19.182Z,95300
2018-02-12T08:56:48.178Z,95303
2018-02-12T08:59:17.223Z,95307
2018-02-12T09:01:46.999Z,95308
2018-02-12T09:04:16.049Z,95315
2018-02-12T09:06:45.050Z,95320
2018-02-12T09:09:14.116Z,95327
2018-02-12T09:11:43.886Z,95326
2018-02-12T09:14:12.891Z,95333
2018-02-12T09:16:41.959Z,95332
2018-02-12T09:19:10.970Z,95327
2018-02-12T09:21:39.974Z,95340
2018-02-12T09:24:09.930Z,95331
2018-02-12T09:26:38.938Z,95325
2018-02-12T09:29:07.947Z,95335
2018-02-12T09:31:36.991Z,95341
2018-02-12T09:34:06.761Z,95334
2018-02-12T09:36:35.802Z,95340
2018-02-12T09:39:04.814Z,95341
2018-02-12T09:41:33.924Z,95348
2018-02-12T09:44:02.905Z,95335
2018-02-12T09:46:31.909Z,95351
2018-02-12T09:49:00.991Z,95352
2018-02-12T09:51:29.991Z,95344
2018-02-12T09:53:58.993Z,95368
2018-02-12T09:56:28.031Z,95361
2018-02-12T09:58:57.838Z,95357
2018-02-12T10:01:26.844Z,95378
2018-02-12T10:03:56.644Z,95370
2018-02-12T10:06:26.418Z,95386
2018-02-12T10:08:55.509Z,95389
2018-02-12T10:11:24.509Z,95393
2018-02-12T10:13:53.514Z,95401
2018-02-12T10:16:22.573Z,95393
2018-02-12T10:18:51.574Z,95388
2018-02-12T10:21:20.579Z,95387
2018-02-12T10:23:49.650Z,95390
2018-02-12T10:26:18.669Z,95376
2018-02-12T10:28:47.688Z,95370
2018-02-12T10:31:16.742Z,95378
2018-02-12T10:33:45.767Z,95371
2018-02-12T10:36:14.850Z,95368
2018-02-12T10:38:43.866Z,95371
2018-02-12T10:41:12.882Z,95368
2018-02-12T10:43:41.966Z,95362
2018-02-12T10:46:11.749Z,95380
2018-02-12T10:48:40.771Z,95379
2018-02-12T10:51:10.627Z,95382
2018-02-12T10:53:39.671Z,95374
2018-02-12T10:56:09.462Z,95365
2018-02-12T10:58:38.514Z,95370
2018-02-12T11:01:07.531Z,95370
2018-02-12T11:03:36.587Z,95366
2018-02-12T11:06:05.607Z,95362
2018-02-12T11:08:34.712Z,95373
2018-02-12T11:11:03.730Z,95371
2018-02-12T11:13:32.749Z,95385
2018-02-12T11:16:03.332Z,95364
2018-02-12T11:18:32.351Z,95372
2018-02-12T11:21:01.362Z,95365
2018-02-12T11:23:31.206Z,95396
2018-02-12T11:26:00.222Z,95401
2018-02-12T11:28:29.237Z,95414
2018-02-12T11:30:58.286Z,95416
2018-02-12T11:33:27.298Z,95413
2018-02-12T11:35:56.352Z,95425
2018-02-12T11:38:25.371Z,95425
2018-02-12T11:40:54.530Z,95418
2018-02-12T11:43:24.314Z,95408
2018-02-12T11:45:53.331Z,95405
2018-02-12T11:48:23.256Z,95408
2018-02-12T11:50:53.040Z,95409
2018-02-12T11:53:22.099Z,95404
2018-02-12T11:55:51.110Z,95403
2018-02-12T11:58:20.174Z,95419
2018-02-12T12:00:49.191Z,95414
2018-02-12T12:03:18.267Z,95408
2018-02-12T12:05:47.282Z,95407
2018-02-12T12:08:16.302Z,95415
2018-02-12T12:10:45.354Z,95410
2018-02-12T12:13:14.357Z,95406
2018-02-12T12:15:43.710Z,95408
2018-02-12T12:18:13.494Z,95413
2018-02-12T12:20:42.515Z,95412
2018-02-12T12:23:12.373Z,95420
2018-02-12T12:25:41.389Z,95412
2018-02-12T12:28:10.416Z,95418
2018-02-12T12:30:40.226Z,95414
2018-02-12T12:33:10.015Z,95403
2018-02-12T12:35:39.060Z,95405
2018-02-12T12:38:08.079Z,95404
2018-02-12T12:40:37.160Z,95410
2018-02-12T12:43:06.163Z,95407
2018-02-12T12:45:35.255Z,95410
2018-02-12T12:48:04.284Z,95424
2018-02-12T12:50:33.307Z,95430
2018-02-12T12:53:02.372Z,95429
2018-02-12T12:55:31.382Z,95424
2018-02-12T12:58:01.195Z,95421
2018-02-12T13:00:30.984Z,95420
2018-02-12T13:03:00.458Z,95416
2018-02-12T13:05:29.465Z,95412
2018-02-12T13:07:58.539Z,95412
2018-02-12T13:10:27.550Z,95409
2018-02-12T13:12:56.570Z,95404
2018-02-12T13:15:25.667Z,95408
2018-02-12T13:17:54.692Z,95411
2018-02-12T13:20:23.707Z,95430
2018-02-12T13:22:52.774Z,95435
2018-02-12T13:25:21.791Z,95447
2018-02-12T13:27:50.821Z,95459
2018-02-12T13:30:19.874Z,95462
2018-02-12T13:32:48.943Z,95454
2018-02-12T13:35:18.749Z,95458
2018-02-12T13:37:48.599Z,95438
2018-02-12T13:40:17.615Z,95431
2018-02-12T13:42:46.644Z,95414
2018-02-12T13:45:16.486Z,95417
2018-02-12T13:47:45.498Z,95408
2018-02-12T13:50:14.522Z,95417
2018-02-12T13:52:43.570Z,95417
2018-02-12T13:55:12.622Z,95422
2018-02-12T13:57:41.639Z,95421
2018-02-12T14:00:10.677Z,95429
2018-02-12T14:02:39.703Z,95426
2018-02-12T14:05:08.751Z,95423
2018-02-12T14:07:37.803Z,95427
2018-02-12T14:10:06.834Z,95440
2018-02-12T14:12:35.886Z,95441
2018-02-12T14:15:05.698Z,95463
2018-02-12T14:17:35.482Z,95476
2018-02-12T14:20:04.537Z,95486
2018-02-12T14:22:33.563Z,95491
2018-02-12T14:25:03.769Z,95495
2018-02-12T14:27:32.783Z,95503
2018-02-12T14:30:01.795Z,95500
2018-02-12T14:32:30.834Z,95497
2018-02-12T14:34:59.879Z,95512
2018-02-12T14:37:28.900Z,95517
2018-02-12T14:39:57.932Z,95529
2018-02-12T14:42:26.946Z,95534
2018-02-12T14:44:56.017Z,95527
2018-02-12T14:47:25.015Z,95533
2018-02-12T14:49:54.023Z,95527
2018-02-12T14:52:23.069Z,95527
2018-02-12T14:54:52.120Z,95512
2018-02-12T14:57:21.126Z,95526
2018-02-12T14:59:50.930Z,95517
2018-02-12T15:02:19.933Z,95516
2018-02-12T15:04:49.747Z,95510
2018-02-12T15:07:19.522Z,95507
2018-02-12T15:09:48.598Z,95505
2018-02-12T15:12:17.611Z,95512
2018-02-12T15:14:46.626Z,95517
2018-02-12T15:17:15.719Z,95523
2018-02-12T15:19:45.508Z,95529
2018-02-12T15:22:14.514Z,95524
2018-02-12T15:24:43.573Z,95532
2018-02-12T15:27:12.577Z,95530
2018-02-12T15:29:41.587Z,95524
2018-02-12T15:32:10.626Z,95534
2018-02-12T15:34:40.398Z,95535
2018-02-12T15:37:09.433Z,95533
2018-02-12T15:39:39.197Z,95536
2018-02-12T15:42:08.255Z,95535
2018-02-12T15:44:37.263Z,95537
2018-02-12T15:47:06.270Z,95545
2018-02-12T15:49:35.325Z,95539
2018-02-12T15:52:04.329Z,95552
2018-02-12T15:54:33.342Z,95554
2018-02-12T15:57:02.383Z,95567
2018-02-12T15:59:32.187Z,95559
2018-02-12T16:02:01.217Z,95562
2018-02-12T16:04:30.230Z,95568
2018-02-12T16:06:59.257Z,95575
2018-02-12T16:09:28.267Z,95576
2018-02-12T16:11:58.070Z,95577
2018-02-12T16:14:27.073Z,95588
2018-02-12T16:16:56.883Z,95587
2018-02-12T16:19:26.940Z,95600
2018-02-12T16:21:55.978Z,95605
2018-02-12T16:24:25.184Z,95614
2018-02-12T16:26:54.191Z,95602
2018-02-12T16:29:23.985Z,95616
2018-02-12T16:31:53.032Z,95613
2018-02-12T16:34:22.041Z,95614
2018-02-12T16:36:51.071Z,95615
2018-02-12T16:39:20.083Z,95627
2018-02-12T16:41:49.884Z,95627
2018-02-12T16:44:19.658Z,95625
2018-02-12T16:46:48.714Z,95623
2018-02-12T16:49:17.721Z,95632
2018-02-12T16:51:46.735Z,95630
2018-02-12T16:54:15.775Z,95639
2018-02-12T16:56:45.555Z,95632
2018-02-12T16:59:14.594Z,95647
2018-02-12T17:01:43.603Z,95639
2018-02-12T17:04:12.655Z,95637
2018-02-12T17:06:42.443Z,95637
2018-02-12T17:09:11.589Z,95647
2018-02-12T17:11:40.593Z,95652
2018-02-12T17:14:09.610Z,95649
2018-02-12T17:16:38.660Z,95647
2018-02-12T17:19:08.433Z,95659
2018-02-12T17:21:37.442Z,95667
2018-02-12T17:24:06.855Z,95658
2018-02-12T17:26:35.532Z,95665
2018-02-12T17:29:04.537Z,95667
2018-02-12T17:31:34.349Z,95676
2018-02-12T17:34:04.135Z,95667
2018-02-12T17:36:33.199Z,95679
2018-02-12T17:39:02.270Z,95678
2018-02-12T17:41:31.314Z,95666
2018-02-12T17:44:00.335Z,95686
2018-02-12T17:46:30.102Z,95676
2018-02-12T17:48:59.214Z,95692
2018-02-12T17:51:28.892Z,95682
2018-02-12T17:53:57.930Z,95683
2018-02-12T17:56:26.958Z,95685
2018-02-12T17:58:55.962Z,95686
2018-02-12T18:01:24.993Z,95694
2018-02-12T18:03:53.998Z,95697
2018-02-12T18:06:23.135Z,95685
2018-02-12T18:08:52.145Z,95696
2018-02-12T18:11:21.154Z,95692
2018-02-12T18:13:50.294Z,95703
2018-02-12T18:16:20.072Z,95702
2018-02-12T18:18:49.090Z,95706
2018-02-12T18:21:18.125Z,95700
2018-02-12T18:23:47.126Z,95703
2018-02-12T18:26:16.193Z,95704
2018-02-12T18:28:45.217Z,95715
2018-02-12T18:31:14.232Z,95721
2018-02-12T18:33:43.270Z,95708
2018-02-12T18:36:13.103Z,95709
2018-02-12T18:38:42.103Z,95718
2018-02-12T18:41:11.178Z,95714
2018-02-12T18:43:40.192Z,95725
2018-02-12T18:46:09.207Z,95727
2018-02-12T18:48:38.306Z,95724
2018-02-12T18:51:07.330Z,95725
2018-02-12T18:53:37.101Z,95726
2018-02-12T18:56:06.154Z,95727
2018-02-12T18:58:35.199Z,95721
2018-02-12T19:01:04.224Z,95731
2018-02-12T19:03:34.030Z,95729
2018-02-12T19:06:03.060Z,95728
2018-02-12T19:08:32.430Z,95730
2018-02-12T19:11:02.223Z,95721
2018-02-12T19:13:31.251Z,95727
2018-02-12T19:16:00.332Z,95726
2018-02-12T19:18:29.390Z,95735
2018-02-12T19:20:58.396Z,95725
2018-02-12T19:23:27.840Z,95731
2018-02-12T19:25:56.869Z,95739
2018-02-12T19:28:25.915Z,95733
2018-02-12T19:30:54.980Z,95732
2018-02-12T19:33:24.046Z,95744
2018-02-12T19:35:53.104Z,95749
2018-02-12T19:38:22.159Z,95753
2018-02-12T19:40:51.264Z,95749
2018-02-12T19:43:20.284Z,95738
2018-02-12T19:45:50.071Z,95753
2018-02-12T19:48:19.155Z,95756
2018-02-12T19:50:48.185Z,95766
2018-02-12T19:53:17.987Z,95762
2018-02-12T19:55:47.063Z,95758
2018-02-12T19:58:16.125Z,95759
2018-02-12T20:00:45.187Z,95785
2018-02-12T20:03:14.238Z,95757
2018-02-12T20:05:43.297Z,95768
2018-02-12T20:08:12.338Z,95768
2018-02-12T20:10:41.439Z,95774
2018-02-12T20:13:10.478Z,95776
2018-02-12T20:15:39.519Z,95780
2018-02-12T20:18:08.607Z,95778
2018-02-12T20:20:37.669Z,95775
2018-02-12T20:23:06.691Z,95779
2018-02-12T20:25:35.774Z,95780
2018-02-12T20:28:04.789Z,95770
2018-02-12T20:30:33.820Z,94886
2018-02-12T20:33:02.877Z,95775
2018-02-12T20:35:31.916Z,95773
2018-02-12T20:38:00.994Z,95775
2018-02-12T20:40:30.029Z,95784
2018-02-12T20:42:59.229Z,95783
2018-02-12T20:45:28.264Z,95790
2018-02-12T20:47:57.429Z,95783
2018-02-12T20:50:26.444Z,95775
2018-02-12T20:52:55.463Z,95790
2018-02-12T20:55:25.284Z,95793
2018-02-12T20:57:54.333Z,95787
2018-02-12T21:00:23.354Z,95784
2018-02-12T21:02:53.186Z,95781
2018-02-12T21:05:22.220Z,95787
2018-02-12T21:07:51.297Z,95793
2018-02-12T21:10:20.316Z,95784
2018-02-12T21:12:49.358Z,95781
2018-02-12T21:15:18.378Z,95783
2018-02-12T21:17:47.576Z,95793
2018-02-12T21:20:16.577Z,95782
2018-02-12T21:22:45.624Z,95787
2018-02-12T21:25:14.693Z,95781
2018-02-12T21:27:43.719Z,95798
2018-02-12T21:30:12.755Z,95792
2018-02-12T21:32:41.912Z,95785
2018-02-12T21:35:10.969Z,95792
2018-02-12T21:37:39.992Z,95797
2018-02-12T21:40:09.067Z,95788
2018-02-12T21:42:38.875Z,95783
2018-02-12T21:45:07.955Z,95789
2018-02-12T21:47:36.988Z,95792
2018-02-12T21:50:08.676Z,95787
2018-02-12T21:52:37.795Z,95785
2018-02-12T21:55:08.331Z,95786
2018-02-12T21:57:55.124Z,95788
2018-02-12T22:00:24.292Z,95791
